Αναφορές METAR

 

LGKV - Kavala/Chrisoupo, Greece
Απόσταση από το σταθμό: Α 54km
Ενημερώθηκε: 22/06/2018 00:50
ΜΗ ΠΡΟΣΦΑΤΟ METAR
Κυρίως Νεφελώδης
Κυρίως Νεφελώδης
 Ανεμος από ΝΔ
Ανεμος: ΝΔ 15 km/h
Θερμοκρασία: 24°C
Σημείο Δρόσου: 18°C
Υγρασία: 69%
Βαρόμετρο: 1011 hPa
Νέφωση: Κυρίως Νεφελώδης
Ορατότητα: 10 km
Λεπτομέρειες νέφωσης: Διάσπαρτα Νέφη 1067 m
Κυρίως Νεφελώδης 2134 m
2018/06/21 21:50 LGKV 212150Z 22008KT 9999 FEW035 BKN070 24/18 Q1011
LGTS - Thessaloniki/Mik, Greece
Απόσταση από το σταθμό: ΔΝΔ 96km
Ενημερώθηκε: 22/06/2018 01:50
Διάσπαρτα Νέφη
Διάσπαρτα Νέφη
 Ανεμος από μεταβλητός
Ανεμος: μεταβλητός 4 km/h
Θερμοκρασία: 23°C
Σημείο Δρόσου: 15°C
Υγρασία: 61%
Βαρόμετρο: 1013 hPa
Νέφωση: Διάσπαρτα Νέφη
Ορατότητα: 10 km
Λεπτομέρειες νέφωσης: Διάσπαρτα Νέφη 610 m
2018/06/21 22:50 LGTS 212250Z VRB02KT 9999 FEW020 23/15 Q1013 NOSIG
 
LBPD - Plovdiv, Bulgaria
Απόσταση από το σταθμό: ΒΒΑ 151km
Ενημερώθηκε: 22/06/2018 02:00
Αίθριος
Αίθριος
 Ανεμος από ΝΝΔ
Ανεμος: ΝΝΔ 6 km/h
Θερμοκρασία: 20°C
Σημείο Δρόσου: 11°C
Υγρασία: 56%
Βαρόμετρο: 1013 hPa
Νέφωση: Αίθριος
Ορατότητα: 10 km
2018/06/21 23:00 LBPD 212300Z AUTO 20003KT 170V300 9999 NCD 20/11 Q1013
LGLM - Limnos Island Ar, Greece
Απόσταση από το σταθμό: ΝΑ 154km
Ενημερώθηκε: 22/06/2018 01:50
Μερικώς Νεφελώδης
Μερικώς Νεφελώδης
 Ανεμος από calm
Ανεμος: Απνοια
Θερμοκρασία: 20°C
Σημείο Δρόσου: 17°C
Υγρασία: 83%
Βαρόμετρο: 1012 hPa
Νέφωση: Μερικώς Νεφελώδης
Ορατότητα: 10 km
Λεπτομέρειες νέφωσης: Μερικώς Νεφελώδης 762 m
2018/06/21 22:50 LGLM 212250Z 00000KT 9999 SCT025 20/17 Q1012
 
LGAL - Alexandroupolis, Greece
Απόσταση από το σταθμό: Α 166km
Ενημερώθηκε: 21/06/2018 22:20
ΜΗ ΠΡΟΣΦΑΤΟ METAR
Διάσπαρτα Νέφη
Διάσπαρτα Νέφη
 Ανεμος από μεταβλητός
Ανεμος: μεταβλητός 6 km/h
Θερμοκρασία: 25°C
Σημείο Δρόσου: 15°C
Υγρασία: 54%
Βαρόμετρο: 1012 hPa
Νέφωση: Διάσπαρτα Νέφη
Ορατότητα: 10 km
Λεπτομέρειες νέφωσης: Διάσπαρτα Νέφη 914 m
2018/06/21 19:20 LGAL 211920Z VRB03KT 9999 FEW030 25/15 Q1012
LGKZ - Kozani (civ/Army, Greece
Απόσταση από το σταθμό: ΔΝΔ 194km
Ενημερώθηκε: 21/06/2018 20:50
ΜΗ ΠΡΟΣΦΑΤΟ METAR
Μερικώς Νεφελώδης
Μερικώς Νεφελώδης
 Ανεμος από ΔΝΔ
Ανεμος: ΔΝΔ 11 km/h
Θερμοκρασία: 20°C
Σημείο Δρόσου: 17°C
Υγρασία: 83%
Βαρόμετρο: 1017 hPa
Νέφωση: Μερικώς Νεφελώδης
Ορατότητα: 10 km
Λεπτομέρειες νέφωσης: Μερικώς Νεφελώδης 762 m
Μερικώς Νεφελώδης 2134 m
2018/06/21 17:50 LGKZ 211750Z 24006KT 9999 SCT025 SCT070 20/17 Q1017
 
LGSK - Skiathos Island, Greece
Απόσταση από το σταθμό: Ν 197km
Ενημερώθηκε: 21/06/2018 21:50
ΜΗ ΠΡΟΣΦΑΤΟ METAR
Διάσπαρτα Νέφη
Διάσπαρτα Νέφη
 Ανεμος από calm
Ανεμος: Απνοια
Θερμοκρασία: 24°C
Σημείο Δρόσου: 16°C
Υγρασία: 61%
Βαρόμετρο: 1013 hPa
Νέφωση: Διάσπαρτα Νέφη
Ορατότητα: 10 km
Λεπτομέρειες νέφωσης: Διάσπαρτα Νέφη 762 m
2018/06/21 18:50 LGSK 211850Z 00000KT 9999 FEW025 24/16 Q1013
LBSF - Sofia (observato, Bulgaria
Απόσταση από το σταθμό: ΒΒΔ 198km
Ενημερώθηκε: 22/06/2018 02:00
Αίθριος
Αίθριος
 Ανεμος από calm
Ανεμος: Απνοια
Θερμοκρασία: 16°C
Σημείο Δρόσου: 15°C
Υγρασία: 94%
Βαρόμετρο: 1015 hPa
Summary: Αίθριος
Ορατότητα: greater than 10 km
2018/06/21 23:00 LBSF 212300Z 00000KT CAVOK 16/15 Q1015 NOSIG
 
LGBL - Nea Anchialos, Greece
Απόσταση από το σταθμό: ΝΝΔ 214km
Ενημερώθηκε: 22/06/2018 01:50
Διάσπαρτα Νέφη
Διάσπαρτα Νέφη
 Ανεμος από calm
Ανεμος: Απνοια
Θερμοκρασία: 21°C
Σημείο Δρόσου: 15°C
Υγρασία: 69%
Βαρόμετρο: 1013 hPa
Νέφωση: Διάσπαρτα Νέφη
Ορατότητα: 10 km
Λεπτομέρειες νέφωσης: Διάσπαρτα Νέφη 1067 m
2018/06/21 22:50 LGBL 212250Z 00000KT 9999 FEW035 21/15 Q1013
LGSY - Skiros, Greece
Απόσταση από το σταθμό: ΝΝΑ 222km
Ενημερώθηκε: 21/06/2018 23:50
ΜΗ ΠΡΟΣΦΑΤΟ METAR
Διάσπαρτα Νέφη
Διάσπαρτα Νέφη
 Ανεμος από calm
Ανεμος: Απνοια
Θερμοκρασία: 21°C
Σημείο Δρόσου: 16°C
Υγρασία: 73%
Βαρόμετρο: 1013 hPa
Νέφωση: Διάσπαρτα Νέφη
Ορατότητα: 10 km
Λεπτομέρειες νέφωσης: Διάσπαρτα Νέφη 762 m
2018/06/21 20:50 LGSY 212050Z 00000KT 9999 FEW025 21/16 Q1013 RMK SCT080 SCT180 BLU
 
LTBH - Canakkale, Turkey
Απόσταση από το σταθμό: ΑΝΑ 224km
Ενημερώθηκε: 22/06/2018 01:50
Κυρίως Νεφελώδης
Κυρίως Νεφελώδης
 Ανεμος από ΒΑ
Ανεμος: ΒΑ 6 km/h
Θερμοκρασία: 20°C
Σημείο Δρόσου: 20°C
Υγρασία: 100%
Βαρόμετρο: 1012 hPa
Νέφωση: Κυρίως Νεφελώδης
Ορατότητα: 8 km
Λεπτομέρειες νέφωσης: Διάσπαρτα Νέφη 1067 m
Μερικώς Νεφελώδης 3048 m
Κυρίως Νεφελώδης 6096 m
2018/06/21 22:50 LTBH 212250Z 04003KT 010V070 8000 FEW035 SCT100 BKN200 20/20 Q1012
LWSK - Skopje/Petrovac, Macedonia
Απόσταση από το σταθμό: ΔΒΔ 227km
Ενημερώθηκε: 22/06/2018 02:00
Αίθριος
Αίθριος
 Ανεμος από calm
Ανεμος: Απνοια
Θερμοκρασία: 17°C
Σημείο Δρόσου: 16°C
Υγρασία: 94%
Βαρόμετρο: 1014 hPa
Summary: Αίθριος
Ορατότητα: greater than 10 km
2018/06/21 23:00 LWSK 212300Z 00000KT CAVOK 17/16 Q1014 NOSIG
 
LWOH - Ohrid, Macedonia
Απόσταση από το σταθμό: Δ 272km
Ενημερώθηκε: 21/06/2018 21:00
ΜΗ ΠΡΟΣΦΑΤΟ METAR
Μερικώς Νεφελώδης
Μερικώς Νεφελώδης
 Ανεμος από ΒΑ
Ανεμος: ΒΑ 4 km/h
Θερμοκρασία: 21°C
Σημείο Δρόσου: 15°C
Υγρασία: 69%
Βαρόμετρο: 1017 hPa
Νέφωση: Μερικώς Νεφελώδης
Ορατότητα: 10 km
Λεπτομέρειες νέφωσης: Διάσπαρτα Νέφη 1219 m
Μερικώς Νεφελώδης 6096 m
2018/06/21 18:00 LWOH 211800Z 05002KT 9999 FEW040 SCT200 21/15 Q1017
LBGO - Gorna Orechovist, Bulgaria
Απόσταση από το σταθμό: ΒΒΑ 287km
Ενημερώθηκε: 22/06/2018 02:00
Αίθριος
Αίθριος
 Ανεμος από Α
Ανεμος: Α 6 km/h
Θερμοκρασία: 18°C
Σημείο Δρόσου: 18°C
Υγρασία: 100%
Βαρόμετρο: 1013 hPa
Νέφωση: Αίθριος
Ορατότητα: 10 km
2018/06/21 23:00 LBGO 212300Z AUTO 10003KT 9999 NCD 18/18 Q1013
 
LTFD - Balikesir Korfez, Turkey
Απόσταση από το σταθμό: ΑΝΑ 300km
Ενημερώθηκε: 21/06/2018 23:50
ΜΗ ΠΡΟΣΦΑΤΟ METAR
Διάσπαρτα Νέφη
Διάσπαρτα Νέφη
 Ανεμος από ΒΒΑ
Ανεμος: ΒΒΑ 6 km/h
Θερμοκρασία: 19°C
Σημείο Δρόσου: 16°C
Υγρασία: 83%
Βαρόμετρο: 1013 hPa
Νέφωση: Διάσπαρτα Νέφη
Ορατότητα: 10 km
Λεπτομέρειες νέφωσης: Διάσπαρτα Νέφη 1067 m
2018/06/21 20:50 LTFD 212050Z 03003KT 9999 FEW035 19/16 Q1013
LGIO - Ioannina, Greece
Απόσταση από το σταθμό: ΔΝΔ 300km
Ενημερώθηκε: 21/06/2018 22:20
ΜΗ ΠΡΟΣΦΑΤΟ METAR
Μερικώς Νεφελώδης
Μερικώς Νεφελώδης
 Ανεμος από μεταβλητός
Ανεμος: μεταβλητός 0 km/h
Θερμοκρασία: 18°C
Σημείο Δρόσου: 16°C
Υγρασία: 88%
Βαρόμετρο: 1017 hPa
Νέφωση: Μερικώς Νεφελώδης
Ορατότητα: 10 km
Λεπτομέρειες νέφωσης: Μερικώς Νεφελώδης 1219 m
Μερικώς Νεφελώδης 2438 m
2018/06/21 19:20 LGIO 211920Z /////KT 9999 SCT040 SCT080 18/16 Q1017
 
LGMT - Mitilini, Greece
Απόσταση από το σταθμό: ΝΑ 305km
Ενημερώθηκε: 21/06/2018 22:50
ΜΗ ΠΡΟΣΦΑΤΟ METAR
Αίθριος
Αίθριος
 Ανεμος από μεταβλητός
Ανεμος: μεταβλητός 4 km/h
Θερμοκρασία: 23°C
Σημείο Δρόσου: 18°C
Υγρασία: 74%
Βαρόμετρο: 1012 hPa
Summary: Αίθριος
Ορατότητα: greater than 10 km
2018/06/21 19:50 LGMT 211950Z VRB02KT CAVOK 23/18 Q1012
BKPR - Prishtina, Yugoslavia
Απόσταση από το σταθμό: ΒΔ 306km
Ενημερώθηκε: 22/06/2018 02:00
Διάσπαρτα Νέφη
Διάσπαρτα Νέφη
 Ανεμος από μεταβλητός
Ανεμος: μεταβλητός 4 km/h
Θερμοκρασία: 16°C
Σημείο Δρόσου: 13°C
Υγρασία: 83%
Βαρόμετρο: 1015 hPa
Νέφωση: Διάσπαρτα Νέφη
Ορατότητα: 10 km
Λεπτομέρειες νέφωσης: Διάσπαρτα Νέφη 2438 m
2018/06/21 23:00 BKPR 212300Z VRB02KT 9999 FEW080 16/13 Q1015 NOSIG
 
LYNI - Nis, Yugoslavia
Απόσταση από το σταθμό: ΒΒΔ 317km
Ενημερώθηκε: 22/06/2018 02:00
Αίθριος
Αίθριος
 Ανεμος από ΑΝΑ
Ανεμος: ΑΝΑ 6 km/h
Θερμοκρασία: 20°C
Σημείο Δρόσου: 15°C
Υγρασία: 73%
Βαρόμετρο: 1013 hPa
Summary: Αίθριος
Ορατότητα: greater than 10 km
2018/06/21 23:00 LYNI 212300Z 11003KT 080V160 CAVOK 20/15 Q1013 NOSIG
LGEL - Elefsis (hel-Afb, Greece
Απόσταση από το σταθμό: Ν 319km
Ενημερώθηκε: 22/06/2018 01:50
Μερικώς Νεφελώδης
Μερικώς Νεφελώδης
 Ανεμος από ΒΒΔ
Ανεμος: ΒΒΔ 7 km/h
Θερμοκρασία: 22°C
Σημείο Δρόσου: 18°C
Υγρασία: 78%
Βαρόμετρο: 1014 hPa
Νέφωση: Μερικώς Νεφελώδης
Ορατότητα: 10 km
Λεπτομέρειες νέφωσης: Διάσπαρτα Νέφη 762 m
Μερικώς Νεφελώδης 2134 m
2018/06/21 22:50 LGEL 212250Z 34004KT 9999 FEW025 SCT070 22/18 Q1014


 ♦     ♦     ♦     Ποτέ μη βασίζετε κρίσιμες αποφάσεις σ'αυτές ή οποιεσδήποτε πληροφορίες καιρού από το Internet     ♦     ♦     ♦